• Join FlightAware (Why Join?)
  • Login
  • US Flag 
04:19AM EST


 

Airport Tracker/Info


-or-


 

Live Flight TrackerFlight Track Log ✈ N319EE ✈ 13-Jun-2014 ✈ KBGM - KROC

Flight Track Log - Related Links

Times and Time Zones

All times are in EDT time to prevent confusion due to time zone crossing. See the N319EE flight status page for this flight to view local times or setup timezone preferences in your user account.

Time Position Orientation Groundspeed Altitude Reporting Facility
EDT Latitude Longitude Course Direction KTS MPH feet Rate Location/Type
06:47AM 42.1681 -76.0056 307° West 119 137 4,100  Level New York Center
06:48AM 42.1986 -76.0669 304° West 134 154 5,800 1,560 Climbing New York Center
06:49AM 42.2314 -76.1283 306° West 161 185 7,300 1,500 Climbing New York Center
06:50AM 42.2722 -76.1933 310° West 196 226 8,800 1,320 Climbing New York Center
06:51AM 42.3125 -76.2639 308° West 218 251 10,000 600 Climbing New York Center
06:52AM 42.3710 -76.2852 307° West  Level FlightAware Approximate
06:52AM 42.3589 -76.3408 309° West 234 269 10,000  Level New York Center
06:53AM 42.4033 -76.4147 309° West 250 288 10,000  Level New York Center
06:54AM 42.4475 -76.4917 308° West 255 293 10,000  Level New York Center
06:55AM 42.4917 -76.5686 308° West 260 299 10,000  Level New York Center
06:57AM 42.5511 -76.6686 309° West 256 295 10,000  Level Cleveland Center
06:58AM 42.5953 -76.7464 308° West 260 299 10,100  Climbing Cleveland Center
06:59AM 42.6494 -76.8394 308° West 261 300 10,000 -120 Descending Cleveland Center
07:00AM 42.6936 -76.9158 308° West 261 300 9,900 -720 Descending Cleveland Center
07:01AM 42.7403 -77.0008 307° West 274 315 8,600 -1,200 Descending Cleveland Center
07:02AM 42.7842 -77.0750 309° West 267 307 7,500 -1,260 Descending Cleveland Center
07:03AM 42.8289 -77.1547 307° West 267 307 6,100 -1,560 Descending Cleveland Center
07:04AM 42.8719 -77.2319 307° West 266 306 4,400 -1,500 Descending Cleveland Center
07:05AM 42.9197 -77.3144 308° West 242 278 3,100 -900 Descending Cleveland Center
07:06AM 42.9697 -77.3650 324° Northwest 226 260 2,700 -300 Descending Cleveland Center
07:07AM 43.0233 -77.4078 330° Northwest 223 257 2,600 -120 Descending Cleveland Center
07:08AM 43.0706 -77.4636 319° Northwest 211 243 2,500 -240 Descending Cleveland Center
07:09AM 43.1122 -77.5203 315° West 216 249 2,100 -420 Descending Cleveland Center
07:10AM 43.1250 -77.5881 285° West 164 189 1,700 -660 Descending Cleveland Center
07:11AM 43.1236 -77.6428 268° West 133 153 900 -540 Descending Cleveland Center
07:12AM 43.1206 -77.6986 266° West 156 180 600 -300 Descending Cleveland Center